Time;durP1;ratioP1;P1;durP2;ratioP2;P2;SDS_P1;SDS_P2;PMS_P1;PMS_P2;Temp;Humidity;BMP_temperature;BMP_pressure;BME280_temperature;BME280_humidity;BME280_pressure;Samples;Min_cycle;Max_cycle;Signal;HPM_P1;HPM_P2
2022/11/15 00:00:26;;;;;;;8.20;1.80;;;9.60;99.90;;;;;;4913153;29;20031;-93
2022/11/15 00:02:55;;;;;;;7.93;1.60;;;9.50;99.90;;;;;;4930399;29;20035;-93
2022/11/15 00:05:21;;;;;;;8.43;1.90;;;9.50;99.90;;;;;;4899269;29;20033;-94
2022/11/15 00:07:47;;;;;;;9.02;1.67;;;9.50;99.90;;;;;;4898119;29;20052;-94
2022/11/15 00:10:12;;;;;;;11.57;1.65;;;9.40;99.90;;;;;;4901881;29;20049;-95
2022/11/15 00:12:38;;;;;;;2.88;1.45;;;9.30;99.90;;;;;;4899045;29;20048;-92
2022/11/15 00:15:04;;;;;;;5.68;1.33;;;9.30;99.90;;;;;;4900057;29;20024;-93
2022/11/15 00:17:30;;;;;;;8.73;1.75;;;9.20;99.90;;;;;;4897686;29;20041;-93
2022/11/15 00:19:56;;;;;;;8.90;2.88;;;9.20;99.90;;;;;;4895281;29;20032;-93
2022/11/15 00:22:21;;;;;;;5.30;1.50;;;9.20;99.90;;;;;;4894303;29;20036;-92
2022/11/15 00:24:47;;;;;;;9.48;1.70;;;9.10;99.90;;;;;;4897169;29;20024;-93
2022/11/15 00:27:13;;;;;;;7.18;1.50;;;9.10;99.90;;;;;;4909977;29;20222;-96
2022/11/15 00:29:42;;;;;;;4.35;1.35;;;9.00;99.90;;;;;;4895798;29;20035;-93
2022/11/15 00:32:09;;;;;;;8.10;1.80;;;9.00;99.90;;;;;;4893583;29;20051;-94
2022/11/15 00:34:35;;;;;;;4.15;1.50;;;8.90;99.90;;;;;;4910011;29;20024;-94
2022/11/15 00:37:00;;;;;;;5.30;1.65;;;8.90;99.90;;;;;;4895330;29;20091;-94
2022/11/15 00:39:26;;;;;;;3.05;1.40;;;8.90;99.90;;;;;;4893702;29;20055;-93
2022/11/15 00:41:53;;;;;;;5.80;1.75;;;8.90;99.90;;;;;;4893112;29;20062;-94
2022/11/15 00:44:19;;;;;;;8.50;1.80;;;8.90;99.90;;;;;;4913481;29;20040;-94
2022/11/15 00:46:44;;;;;;;6.65;2.25;;;8.80;99.90;;;;;;4899912;29;20047;-94
2022/11/15 00:49:10;;;;;;;10.77;2.13;;;8.80;99.90;;;;;;4907553;29;20044;-93
2022/11/15 00:51:35;;;;;;;5.95;1.60;;;8.80;99.90;;;;;;4902564;29;20044;-92
2022/11/15 00:54:01;;;;;;;5.65;1.60;;;8.70;99.90;;;;;;4906864;29;20029;-91
2022/11/15 00:56:27;;;;;;;6.25;1.65;;;8.60;99.90;;;;;;4907421;29;20061;-90
2022/11/15 00:58:53;;;;;;;7.22;1.73;;;8.60;99.90;;;;;;4905684;29;20024;-90
2022/11/15 01:01:19;;;;;;;9.23;2.38;;;8.60;99.90;;;;;;4902565;29;20024;-93
2022/11/15 01:03:44;;;;;;;7.80;2.08;;;8.50;99.90;;;;;;4894526;29;20031;-93
2022/11/15 01:06:11;;;;;;;5.85;1.77;;;8.50;99.90;;;;;;4910581;29;20032;-91
2022/11/15 01:08:39;;;;;;;6.55;2.50;;;8.50;99.90;;;;;;4894016;29;20052;-94
2022/11/15 01:11:08;;;;;;;12.93;2.25;;;8.40;99.90;;;;;;4895489;29;20033;-94
2022/11/15 01:13:36;;;;;;;6.30;1.98;;;8.40;99.90;;;;;;4907492;29;20048;-93
2022/11/15 01:16:13;;;;;;;7.40;2.20;;;8.40;99.90;;;;;;4891450;29;20096;-92
2022/11/15 01:18:39;;;;;;;9.88;2.28;;;8.30;99.90;;;;;;4887979;29;20029;-94
2022/11/15 01:21:16;;;;;;;5.55;2.08;;;8.30;99.90;;;;;;4892284;29;20401;-93
2022/11/15 01:23:42;;;;;;;6.10;2.20;;;8.30;99.90;;;;;;4905127;29;20020;-94
2022/11/15 01:26:12;;;;;;;6.15;2.20;;;8.30;99.90;;;;;;4911722;29;20032;-91
2022/11/15 01:28:39;;;;;;;10.68;2.03;;;8.20;99.90;;;;;;4907968;29;20084;-93
2022/11/15 01:31:09;;;;;;;10.88;2.83;;;8.20;99.90;;;;;;4910051;29;20028;-92
2022/11/15 01:33:36;;;;;;;6.68;2.00;;;8.20;99.90;;;;;;4928258;29;20043;-95
2022/11/15 01:36:08;;;;;;;11.68;2.45;;;8.20;99.90;;;;;;4906908;29;20060;-92
2022/11/15 01:38:34;;;;;;;9.90;2.88;;;8.10;99.90;;;;;;4909631;29;20513;-93
2022/11/15 01:41:00;;;;;;;4.20;1.90;;;8.10;99.90;;;;;;4911284;29;20020;-92
2022/11/15 01:43:32;;;;;;;9.10;2.35;;;8.10;99.90;;;;;;4910653;29;20032;-92
2022/11/15 01:46:19;;;;;;;7.68;2.13;;;8.10;99.90;;;;;;4910734;29;20052;-95
2022/11/15 01:48:45;;;;;;;9.60;2.38;;;8.00;99.90;;;;;;4919114;29;20039;-92
2022/11/15 01:51:15;;;;;;;6.45;2.10;;;8.00;99.90;;;;;;4924625;29;20027;-89
2022/11/15 01:53:47;;;;;;;12.88;2.00;;;8.00;99.90;;;;;;4919268;29;20032;-95
2022/11/15 01:56:18;;;;;;;14.20;2.28;;;8.00;99.90;;;;;;4918292;29;20028;-93
2022/11/15 01:58:46;;;;;;;5.20;1.88;;;8.00;99.90;;;;;;4920241;29;20028;-92
2022/11/15 02:01:13;;;;;;;7.35;2.20;;;8.00;99.90;;;;;;4937072;28;20046;-91
2022/11/15 02:03:50;;;;;;;6.50;2.33;;;8.00;99.90;;;;;;4921254;29;20036;-91
2022/11/15 02:06:16;;;;;;;9.65;2.20;;;8.00;99.90;;;;;;4916925;29;20046;-94
2022/11/15 02:08:43;;;;;;;5.55;2.20;;;8.00;99.90;;;;;;4915550;29;20032;-93
2022/11/15 02:11:09;;;;;;;9.13;2.60;;;7.90;99.90;;;;;;4915520;29;20036;-93
2022/11/15 02:13:36;;;;;;;8.38;2.08;;;7.90;99.90;;;;;;4915388;29;20034;-93
2022/11/15 02:16:26;;;;;;;7.43;1.80;;;7.90;99.90;;;;;;4930697;29;20031;-92
2022/11/15 02:19:13;;;;;;;8.90;2.28;;;7.90;99.90;;;;;;4927945;29;20060;-93
2022/11/15 02:21:41;;;;;;;10.55;2.47;;;7.90;99.90;;;;;;4913001;29;20073;-94
2022/11/15 02:24:07;;;;;;;9.77;2.40;;;7.90;99.90;;;;;;4930741;29;20024;-93
2022/11/15 02:26:51;;;;;;;8.05;2.10;;;7.90;99.90;;;;;;4929716;29;20059;-93
2022/11/15 02:29:42;;;;;;;17.63;2.10;;;7.90;99.90;;;;;;4930485;29;20028;-96
2022/11/15 02:32:45;;;;;;;16.65;1.98;;;7.90;99.90;;;;;;4929542;29;20051;-92
2022/11/15 02:35:23;;;;;;;20.25;2.08;;;7.90;99.90;;;;;;4870555;29;20101;-94
2022/11/15 02:37:58;;;;;;;11.95;1.95;;;8.00;99.90;;;;;;4885434;29;20044;-94
2022/11/15 02:40:40;;;;;;;6.60;1.73;;;8.00;99.90;;;;;;4890717;29;20096;-94
2022/11/15 02:46:17;;;;;;;13.05;2.28;;;8.00;99.90;;;;;;4890260;29;20064;-93
2022/11/15 02:48:44;;;;;;;8.90;2.10;;;8.00;99.90;;;;;;4894874;29;20603;-95
2022/11/15 02:51:11;;;;;;;14.52;2.28;;;8.00;99.90;;;;;;4894328;29;20049;-93
2022/11/15 02:53:37;;;;;;;14.18;2.20;;;8.00;99.90;;;;;;4894566;29;20133;-94
2022/11/15 02:56:03;;;;;;;5.60;1.60;;;8.00;99.90;;;;;;4893471;29;20054;-89
2022/11/15 02:58:47;;;;;;;5.72;1.67;;;8.00;99.90;;;;;;4901566;29;20025;-90
2022/11/15 03:01:39;;;;;;;14.63;1.92;;;8.00;99.90;;;;;;4902026;29;20033;-91
2022/11/15 03:04:32;;;;;;;11.27;2.17;;;8.00;99.90;;;;;;4891211;29;20114;-95
2022/11/15 03:07:13;;;;;;;11.35;1.73;;;8.00;99.90;;;;;;4891102;29;20060;-92
2022/11/15 03:09:57;;;;;;;12.13;2.25;;;8.00;99.90;;;;;;4894308;29;20041;-93
2022/11/15 03:12:27;;;;;;;9.65;2.28;;;8.00;99.90;;;;;;4912861;29;20051;-92
2022/11/15 03:15:04;;;;;;;9.23;1.80;;;8.00;99.90;;;;;;4926586;29;20296;-94
2022/11/15 03:17:38;;;;;;;17.42;3.95;;;8.00;99.90;;;;;;4926888;29;20028;-93
2022/11/15 03:20:06;;;;;;;14.48;1.98;;;8.00;99.90;;;;;;4929748;29;20020;-92
2022/11/15 03:22:39;;;;;;;6.22;1.70;;;8.10;99.90;;;;;;4911238;29;20036;-94
2022/11/15 03:25:08;;;;;;;6.82;1.33;;;8.10;99.90;;;;;;4926566;29;20040;-94
2022/11/15 03:27:38;;;;;;;7.93;1.30;;;8.10;99.90;;;;;;4925311;29;20055;-94
2022/11/15 03:30:06;;;;;;;;;;;8.20;99.90;;;;;;4909771;29;20028;-93
2022/11/15 03:32:36;;;;;;;8.70;2.05;;;8.20;99.90;;;;;;4927615;29;19915;-91
2022/11/15 03:35:05;;;;;;;8.98;2.42;;;8.20;99.90;;;;;;4924469;29;20020;-92
2022/11/15 03:37:34;;;;;;;13.90;1.75;;;8.20;99.90;;;;;;4927335;29;20047;-93
2022/11/15 03:40:00;;;;;;;11.50;1.88;;;8.20;99.90;;;;;;4922678;29;20099;-95
2022/11/15 03:42:47;;;;;;;12.88;1.48;;;8.20;99.90;;;;;;4922965;29;20024;-94
2022/11/15 03:45:26;;;;;;;11.80;1.42;;;8.30;99.90;;;;;;4922957;29;20261;-94
2022/11/15 03:48:02;;;;;;;5.03;1.90;;;8.30;99.90;;;;;;4921654;29;20031;-92
2022/11/15 03:50:29;;;;;;;8.10;1.40;;;8.30;99.90;;;;;;4919749;29;20024;-93
2022/11/15 03:52:55;;;;;;;8.02;1.25;;;8.40;99.90;;;;;;4920309;29;20047;-94
2022/11/15 03:55:21;;;;;;;7.25;1.58;;;8.40;99.90;;;;;;4921479;29;20080;-95
2022/11/15 03:57:50;;;;;;;14.48;1.50;;;8.40;99.90;;;;;;4920452;29;20048;-93
2022/11/15 04:00:16;;;;;;;9.63;2.28;;;8.50;99.90;;;;;;4900103;29;20155;-94
2022/11/15 04:02:42;;;;;;;7.63;1.33;;;8.50;99.90;;;;;;4919296;29;20031;-93
2022/11/15 04:05:08;;;;;;;6.50;1.50;;;8.50;99.90;;;;;;4906529;29;20080;-93
2022/11/15 04:07:33;;;;;;;6.47;1.63;;;8.50;99.90;;;;;;4924864;29;20038;-94
2022/11/15 04:10:02;;;;;;;11.35;1.85;;;8.60;99.90;;;;;;4923176;29;20032;-94
2022/11/15 04:12:32;;;;;;;10.55;1.60;;;8.60;99.90;;;;;;4907226;29;20095;-91
2022/11/15 04:15:06;;;;;;;7.80;1.48;;;8.60;99.90;;;;;;4927232;29;20030;-93
2022/11/15 04:17:33;;;;;;;13.45;2.80;;;8.60;99.90;;;;;;4932185;29;20035;-93
2022/11/15 04:25:26;;;;;;;11.90;2.35;;;8.70;99.90;;;;;;4925323;29;20059;-94
2022/11/15 04:27:52;;;;;;;14.55;1.58;;;8.70;99.90;;;;;;4924608;29;20036;-94
2022/11/15 04:30:18;;;;;;;8.70;1.38;;;8.70;99.90;;;;;;4908064;29;20390;-92
2022/11/15 04:32:43;;;;;;;7.30;1.48;;;8.70;99.90;;;;;;4907149;29;20040;-93
2022/11/15 04:35:09;;;;;;;7.55;2.13;;;8.70;99.90;;;;;;4905978;29;20024;-95
2022/11/15 04:37:34;;;;;;;14.98;1.83;;;8.70;99.90;;;;;;4907064;29;20099;-93
2022/11/15 04:40:00;;;;;;;9.38;2.60;;;8.80;99.90;;;;;;4904469;29;20064;-93
2022/11/15 04:42:26;;;;;;;14.45;2.00;;;8.80;99.90;;;;;;4903419;29;20066;-93
2022/11/15 04:44:51;;;;;;;7.88;1.65;;;8.80;99.90;;;;;;4903530;29;20090;-93
2022/11/15 04:47:17;;;;;;;9.65;1.75;;;8.80;99.90;;;;;;4903925;29;20094;-95
2022/11/15 04:49:43;;;;;;;12.65;3.00;;;8.80;99.90;;;;;;4927226;29;20031;-91
2022/11/15 04:52:09;;;;;;;14.32;1.90;;;8.90;99.90;;;;;;4918175;29;20024;-91
2022/11/15 04:54:35;;;;;;;10.95;1.75;;;8.90;99.90;;;;;;4903827;29;20035;-92
2022/11/15 04:57:00;;;;;;;10.43;1.70;;;8.90;99.90;;;;;;4902049;29;20036;-93
2022/11/15 04:59:26;;;;;;;12.13;1.95;;;8.90;99.90;;;;;;4917712;29;20031;-93
2022/11/15 05:01:54;;;;;;;7.03;1.65;;;8.90;99.90;;;;;;4918613;29;20305;-95
2022/11/15 05:04:19;;;;;;;8.35;1.70;;;8.90;99.90;;;;;;4901241;29;20474;-94
2022/11/15 05:06:50;;;;;;;10.93;1.77;;;9.00;99.90;;;;;;4897453;29;20035;-93
2022/11/15 05:09:20;;;;;;;12.77;2.20;;;8.90;99.90;;;;;;4902141;29;20526;-92
2022/11/15 05:11:46;;;;;;;9.82;2.00;;;8.90;99.90;;;;;;4901738;29;20040;-94
2022/11/15 05:14:12;;;;;;;11.45;1.88;;;8.90;99.90;;;;;;4933465;29;20040;-93
2022/11/15 05:16:39;;;;;;;10.52;2.60;;;8.90;99.90;;;;;;4902741;29;20497;-93
2022/11/15 05:19:05;;;;;;;8.73;2.03;;;8.90;99.90;;;;;;4904556;29;20028;-93
2022/11/15 05:21:31;;;;;;;6.45;1.77;;;8.90;99.90;;;;;;4904495;29;20024;-93
2022/11/15 05:23:57;;;;;;;14.65;2.55;;;8.90;99.90;;;;;;4902369;29;20028;-95
2022/11/15 05:26:23;;;;;;;13.65;2.15;;;8.90;99.90;;;;;;4918173;29;20039;-93
2022/11/15 05:28:53;;;;;;;7.18;2.17;;;8.80;99.90;;;;;;4901243;29;20051;-91
2022/11/15 05:31:19;;;;;;;;;;;8.80;99.90;;;;;;4917463;29;20040;-94
2022/11/15 05:33:45;;;;;;;8.10;1.98;;;8.80;99.90;;;;;;4902196;29;20368;-92
2022/11/15 05:36:17;;;;;;;8.10;1.73;;;8.80;99.90;;;;;;4902420;29;20028;-94
2022/11/15 05:38:43;;;;;;;12.38;2.40;;;8.80;99.90;;;;;;4917189;29;20044;-93
2022/11/15 05:41:10;;;;;;;8.27;1.90;;;8.80;99.90;;;;;;4898305;29;20092;-93
2022/11/15 05:43:38;;;;;;;6.03;1.70;;;8.80;99.90;;;;;;4903929;29;20028;-92
2022/11/15 05:46:05;;;;;;;6.97;2.00;;;8.80;99.90;;;;;;4901674;29;20059;-92
2022/11/15 05:48:32;;;;;;;8.25;2.38;;;8.80;99.90;;;;;;4916556;29;20036;-93
2022/11/15 05:50:58;;;;;;;10.07;1.90;;;8.80;99.90;;;;;;4900918;29;20127;-92
2022/11/15 05:53:25;;;;;;;7.15;2.03;;;8.80;99.90;;;;;;4900769;29;20079;-91
2022/11/15 05:55:51;;;;;;;5.03;1.83;;;8.80;99.90;;;;;;4900591;29;20123;-94
2022/11/15 05:58:18;;;;;;;4.32;1.85;;;8.80;99.90;;;;;;4900723;29;20028;-93
2022/11/15 06:00:44;;;;;;;5.28;1.90;;;8.80;99.90;;;;;;4899992;29;20025;-92
2022/11/15 06:03:10;;;;;;;5.35;2.00;;;8.80;99.90;;;;;;4917376;29;20088;-91
2022/11/15 06:05:36;;;;;;;9.48;2.22;;;8.80;99.90;;;;;;4900700;29;20028;-92
2022/11/15 06:08:01;;;;;;;3.70;1.60;;;8.80;99.90;;;;;;4901123;29;20032;-93
2022/11/15 06:10:27;;;;;;;9.60;2.03;;;8.80;99.90;;;;;;4917396;29;20053;-93
2022/11/15 06:13:01;;;;;;;5.72;1.80;;;8.80;99.90;;;;;;4900802;29;20127;-92
2022/11/15 06:15:26;;;;;;;4.50;1.80;;;8.80;99.90;;;;;;4913097;29;20032;-92
2022/11/15 06:17:57;;;;;;;4.80;1.40;;;8.80;99.90;;;;;;4916009;29;20433;-91
2022/11/15 06:20:23;;;;;;;4.80;1.50;;;8.80;99.90;;;;;;4901258;29;20028;-92
2022/11/15 06:22:49;;;;;;;4.38;1.55;;;8.80;99.90;;;;;;4905610;29;20043;-92
2022/11/15 06:25:14;;;;;;;4.10;1.52;;;8.80;99.90;;;;;;4917901;29;20030;-93
2022/11/15 06:27:40;;;;;;;2.42;1.50;;;8.80;99.90;;;;;;4900299;29;20506;-94
2022/11/15 06:30:06;;;;;;;4.88;1.50;;;8.80;99.90;;;;;;4900251;29;20032;-91
2022/11/15 06:32:32;;;;;;;2.45;1.60;;;8.80;99.90;;;;;;4900190;29;20557;-92
2022/11/15 06:34:57;;;;;;;7.22;1.42;;;8.80;99.90;;;;;;4899852;29;20166;-92
2022/11/15 06:37:23;;;;;;;2.30;1.40;;;8.80;99.90;;;;;;4899778;29;20032;-92
2022/11/15 06:39:48;;;;;;;4.85;1.30;;;8.80;99.90;;;;;;4916362;29;20398;-94
2022/11/15 06:42:14;;;;;;;3.83;1.30;;;8.80;99.90;;;;;;4899599;29;20481;-94
2022/11/15 06:44:40;;;;;;;2.58;0.98;;;8.80;99.90;;;;;;4895544;29;20059;-94
2022/11/15 06:47:05;;;;;;;7.25;1.50;;;8.80;99.90;;;;;;4899170;29;20070;-93
2022/11/15 06:49:31;;;;;;;2.28;1.20;;;8.80;99.90;;;;;;4899157;29;20115;-92
2022/11/15 06:51:56;;;;;;;1.67;0.95;;;8.80;99.90;;;;;;4899383;29;20425;-95
2022/11/15 06:54:22;;;;;;;1.75;1.17;;;8.90;99.90;;;;;;4900147;29;20024;-94
2022/11/15 06:56:48;;;;;;;6.95;1.30;;;8.80;99.90;;;;;;4916124;29;20047;-92
2022/11/15 06:59:13;;;;;;;2.35;1.10;;;8.90;99.90;;;;;;4899237;29;20028;-92
2022/11/15 07:01:39;;;;;;;2.70;1.80;;;8.90;99.90;;;;;;4899188;29;20604;-90
2022/11/15 07:04:04;;;;;;;8.05;1.63;;;8.90;99.90;;;;;;4899140;29;20035;-92
2022/11/15 07:06:30;;;;;;;5.32;1.30;;;8.90;99.90;;;;;;4898776;29;20028;-93
2022/11/15 07:08:56;;;;;;;1.52;1.00;;;8.90;99.90;;;;;;4899027;29;20051;-93
2022/11/15 07:11:21;;;;;;;4.20;1.25;;;8.90;99.90;;;;;;4899062;29;20044;-93
2022/11/15 07:13:47;;;;;;;5.50;1.45;;;9.00;99.90;;;;;;4916012;29;20103;-92
2022/11/15 07:16:12;;;;;;;3.40;1.40;;;9.00;99.90;;;;;;4898424;29;20068;-94
2022/11/15 07:18:39;;;;;;;10.73;1.80;;;9.00;99.90;;;;;;4898684;29;20071;-92
2022/11/15 07:21:07;;;;;;;4.70;1.50;;;9.00;99.90;;;;;;4895128;29;20034;-92
2022/11/15 07:23:35;;;;;;;5.75;1.88;;;9.00;99.90;;;;;;4898494;29;20072;-92
2022/11/15 07:26:01;;;;;;;6.30;1.70;;;9.00;99.90;;;;;;4899249;29;20024;-93
2022/11/15 07:28:27;;;;;;;3.30;1.77;;;9.10;99.90;;;;;;4898984;29;20039;-93
2022/11/15 07:30:53;;;;;;;2.45;1.65;;;9.10;99.90;;;;;;4899192;29;20025;-93
2022/11/15 07:33:19;;;;;;;3.78;2.30;;;9.10;99.90;;;;;;4899343;29;20043;-91
2022/11/15 07:35:48;;;;;;;5.63;2.17;;;9.10;99.90;;;;;;4899072;29;20063;-92
2022/11/15 07:38:14;;;;;;;4.20;2.17;;;9.10;99.90;;;;;;4898494;29;20028;-91
2022/11/15 07:40:40;;;;;;;9.38;2.50;;;9.20;99.90;;;;;;4898583;29;20027;-91
2022/11/15 07:43:08;;;;;;;4.03;2.63;;;9.20;99.90;;;;;;4915012;29;20394;-93
2022/11/15 07:45:39;;;;;;;7.05;2.95;;;9.20;99.90;;;;;;4899360;29;20055;-93
2022/11/15 07:48:05;;;;;;;6.80;2.97;;;9.20;99.90;;;;;;4900678;29;20489;-94
2022/11/15 07:50:31;;;;;;;5.88;3.03;;;9.20;99.90;;;;;;4915464;29;20091;-91
2022/11/15 07:52:57;;;;;;;4.88;3.00;;;9.20;99.90;;;;;;4915657;29;20043;-91
2022/11/15 07:55:24;;;;;;;5.45;2.78;;;9.20;99.90;;;;;;4904438;29;20106;-92
2022/11/15 07:57:50;;;;;;;6.82;2.67;;;9.30;99.90;;;;;;4903283;29;20063;-91
2022/11/15 08:00:16;;;;;;;3.88;2.65;;;9.30;99.90;;;;;;4903472;29;20032;-91
2022/11/15 08:02:42;;;;;;;6.15;3.17;;;9.30;99.90;;;;;;4903665;29;20024;-91
2022/11/15 08:05:08;;;;;;;4.90;2.85;;;9.30;99.90;;;;;;4902810;29;20028;-92
2022/11/15 08:07:33;;;;;;;7.82;3.30;;;9.30;99.90;;;;;;4902878;29;20406;-92
2022/11/15 08:10:00;;;;;;;4.63;2.70;;;9.40;99.90;;;;;;4920577;29;20024;-91
2022/11/15 08:12:28;;;;;;;3.58;2.30;;;9.40;99.90;;;;;;4903013;29;20048;-91
2022/11/15 08:14:55;;;;;;;6.43;2.58;;;9.40;99.90;;;;;;4902347;29;20032;-91
2022/11/15 08:17:20;;;;;;;2.33;2.13;;;9.40;99.90;;;;;;4902821;29;20116;-92
2022/11/15 08:19:46;;;;;;;6.50;2.40;;;9.40;99.90;;;;;;4919812;29;20024;-93
2022/11/15 08:22:12;;;;;;;4.57;2.35;;;9.40;99.90;;;;;;4905288;29;20409;-92
2022/11/15 08:24:38;;;;;;;4.60;2.50;;;9.40;99.90;;;;;;4920634;29;20072;-94
2022/11/15 08:27:04;;;;;;;3.20;2.30;;;9.50;99.90;;;;;;4902396;29;20478;-93
2022/11/15 08:29:29;;;;;;;2.78;2.47;;;9.50;99.90;;;;;;4920225;29;20032;-93
2022/11/15 08:31:55;;;;;;;4.45;2.90;;;9.50;99.90;;;;;;4905747;29;20031;-92
2022/11/15 08:34:22;;;;;;;3.28;2.75;;;9.50;99.90;;;;;;4920971;29;20089;-94
2022/11/15 08:36:47;;;;;;;4.18;2.55;;;9.50;99.90;;;;;;4907185;29;20020;-93
2022/11/15 08:39:13;;;;;;;2.53;2.22;;;9.50;99.90;;;;;;4920487;29;20054;-92
2022/11/15 08:41:39;;;;;;;7.55;2.60;;;9.60;99.90;;;;;;4922995;29;20052;-89
2022/11/15 08:44:05;;;;;;;3.17;2.05;;;9.60;99.90;;;;;;4925209;29;20012;-89
2022/11/15 08:46:30;;;;;;;4.35;2.33;;;9.60;99.90;;;;;;4958438;29;20519;-90
2022/11/15 08:48:56;;;;;;;3.20;2.22;;;9.60;99.90;;;;;;4925121;29;20020;-94
2022/11/15 08:51:22;;;;;;;6.15;1.80;;;9.60;99.90;;;;;;4923592;29;20116;-94
2022/11/15 08:53:48;;;;;;;2.95;1.77;;;9.60;99.90;;;;;;4922870;29;20023;-93
2022/11/15 08:56:14;;;;;;;2.78;1.83;;;9.70;99.90;;;;;;4945665;29;20036;-93
2022/11/15 08:58:40;;;;;;;3.60;1.77;;;9.70;99.90;;;;;;4923687;29;20469;-93
2022/11/15 09:01:06;;;;;;;3.15;1.75;;;9.70;99.90;;;;;;4922311;29;20032;-92
2022/11/15 09:03:32;;;;;;;4.78;1.70;;;9.70;99.90;;;;;;4922863;29;20051;-92
2022/11/15 09:05:59;;;;;;;4.35;1.58;;;9.70;99.90;;;;;;4922155;29;20031;-93
2022/11/15 09:08:28;;;;;;;2.20;1.55;;;9.70;99.90;;;;;;4924566;29;20020;-93
2022/11/15 09:10:54;;;;;;;4.65;1.40;;;9.80;99.90;;;;;;4924674;29;20032;-96
2022/11/15 09:13:20;;;;;;;5.10;1.83;;;9.80;99.90;;;;;;4930555;29;20047;-95
2022/11/15 09:15:45;;;;;;;5.50;1.90;;;9.80;99.90;;;;;;4927697;29;20482;-95
2022/11/15 09:18:11;;;;;;;3.42;2.45;;;9.90;99.90;;;;;;4924855;29;20489;-94
2022/11/15 09:20:37;;;;;;;4.18;1.50;;;9.90;99.90;;;;;;4925848;29;20557;-94
2022/11/15 09:23:04;;;;;;;3.15;1.45;;;9.90;99.90;;;;;;4923059;29;20054;-93
2022/11/15 09:25:30;;;;;;;2.78;1.35;;;9.90;99.90;;;;;;4926574;29;20078;-96
2022/11/15 09:27:56;;;;;;;1.58;1.40;;;9.90;99.90;;;;;;4927882;29;20083;-94
2022/11/15 09:30:23;;;;;;;2.92;1.52;;;9.90;99.90;;;;;;4942086;29;20035;-96
2022/11/15 09:32:49;;;;;;;3.15;1.70;;;10.00;99.90;;;;;;4927677;29;20111;-95
2022/11/15 09:35:15;;;;;;;3.97;1.65;;;10.00;99.90;;;;;;4928585;29;20044;-96
2022/11/15 09:37:40;;;;;;;1.80;1.60;;;10.00;99.90;;;;;;4925639;29;20091;-93
2022/11/15 09:40:16;;;;;;;2.58;1.23;;;10.00;99.90;;;;;;4925177;29;20024;-94
2022/11/15 09:43:03;;;;;;;2.28;1.67;;;10.00;99.90;;;;;;4926911;29;20547;-93
2022/11/15 09:45:31;;;;;;;3.22;1.42;;;10.10;99.90;;;;;;4927670;29;20044;-94
2022/11/15 09:48:28;;;;;;;2.55;1.48;;;10.10;99.90;;;;;;4904461;29;20481;-96
2022/11/15 09:50:59;;;;;;;2.33;1.00;;;10.10;99.90;;;;;;4920385;29;20038;-93
2022/11/15 09:53:26;;;;;;;1.80;1.00;;;10.10;99.90;;;;;;4905262;29;20042;-95
2022/11/15 09:56:01;;;;;;;1.10;1.00;;;10.10;99.90;;;;;;4905673;29;20040;-96
2022/11/15 09:58:38;;;;;;;1.48;1.08;;;10.10;99.90;;;;;;4922736;29;20020;-95
2022/11/15 10:01:12;;;;;;;1.10;0.85;;;10.10;99.90;;;;;;4923698;29;20520;-95
2022/11/15 10:03:41;;;;;;;2.75;0.93;;;10.10;99.90;;;;;;4921658;29;20056;-95
2022/11/15 10:06:22;;;;;;;0.93;0.80;;;10.10;99.90;;;;;;4924165;29;20028;-95
2022/11/15 10:08:54;;;;;;;3.53;1.02;;;10.10;99.90;;;;;;4922119;29;20470;-95
2022/11/15 10:11:24;;;;;;;1.98;0.93;;;10.10;99.90;;;;;;4919498;29;20035;-95
2022/11/15 10:13:53;;;;;;;2.10;1.05;;;10.10;99.90;;;;;;4905421;29;20028;-94
2022/11/15 10:16:34;;;;;;;2.33;1.10;;;10.10;99.90;;;;;;4905018;29;20104;-95
2022/11/15 10:19:17;;;;;;;1.58;0.80;;;10.10;99.90;;;;;;4921405;29;20036;-94
2022/11/15 10:22:07;;;;;;;1.88;1.10;;;10.10;99.90;;;;;;4909609;29;20042;-94
2022/11/15 10:24:41;;;;;;;2.78;1.55;;;10.10;99.90;;;;;;4929802;29;20038;-95
2022/11/15 10:27:15;;;;;;;2.03;1.15;;;10.10;99.90;;;;;;4910212;29;20105;-96
2022/11/15 10:29:51;;;;;;;5.95;1.40;;;10.10;99.90;;;;;;4905689;29;20028;-95
2022/11/15 10:32:20;;;;;;;1.20;1.10;;;10.10;99.90;;;;;;4908357;29;20473;-94
2022/11/15 10:34:49;;;;;;;1.52;0.88;;;10.10;99.90;;;;;;4921905;29;20036;-95
2022/11/15 10:37:26;;;;;;;2.25;1.10;;;10.10;99.90;;;;;;4905831;29;20024;-94
2022/11/15 10:40:29;;;;;;;2.95;1.25;;;10.20;99.90;;;;;;4906749;29;20035;-95
2022/11/15 10:43:26;;;;;;;2.38;1.15;;;10.20;99.90;;;;;;4834988;29;20026;-94
2022/11/15 10:45:52;;;;;;;3.83;1.00;;;10.20;99.90;;;;;;4831067;29;20114;-96
2022/11/15 10:48:18;;;;;;;1.08;0.80;;;10.20;99.90;;;;;;4857343;29;20166;-94
2022/11/15 10:50:45;;;;;;;2.97;0.90;;;10.20;99.90;;;;;;4859070;29;20042;-95
2022/11/15 10:53:17;;;;;;;2.85;1.05;;;10.30;99.90;;;;;;4852926;29;20057;-95
2022/11/15 10:56:01;;;;;;;1.73;0.70;;;10.30;99.90;;;;;;4855391;29;20042;-95
2022/11/15 10:58:36;;;;;;;0.88;0.73;;;10.30;99.90;;;;;;4854333;29;20037;-95
2022/11/15 11:01:16;;;;;;;0.40;0.40;;;10.30;99.90;;;;;;4852137;29;20025;-94
2022/11/15 11:03:45;;;;;;;1.08;0.52;;;10.40;99.90;;;;;;4851055;29;20078;-94
2022/11/15 11:06:17;;;;;;;4.15;0.75;;;10.40;99.90;;;;;;4850749;29;20116;-96
2022/11/15 11:08:57;;;;;;;3.20;0.50;;;10.40;99.90;;;;;;4852187;29;20042;-95
2022/11/15 11:11:23;;;;;;;0.57;0.40;;;10.50;99.90;;;;;;4851664;29;20034;-95
2022/11/15 11:13:50;;;;;;;1.48;0.52;;;10.40;99.90;;;;;;4851885;29;20080;-96
2022/11/15 11:16:21;;;;;;;0.93;0.38;;;10.50;99.90;;;;;;4872060;29;20399;-96
2022/11/15 11:19:07;;;;;;;2.20;0.43;;;10.50;99.90;;;;;;4927801;29;20091;-94
2022/11/15 11:21:42;;;;;;;0.50;0.50;;;10.50;99.90;;;;;;4926871;29;20044;-94
2022/11/15 11:24:33;;;;;;;0.77;0.50;;;10.50;99.90;;;;;;4917179;29;20028;-94
2022/11/15 11:27:25;;;;;;;1.42;0.45;;;10.60;99.90;;;;;;4931366;29;20035;-96
2022/11/15 11:30:24;;;;;;;0.93;0.60;;;10.60;99.90;;;;;;4904920;29;20146;-95
2022/11/15 11:33:22;;;;;;;1.35;0.60;;;10.60;99.90;;;;;;4917672;29;20060;-94
2022/11/15 11:36:22;;;;;;;0.98;0.50;;;10.60;99.90;;;;;;4916517;29;20103;-95
2022/11/15 11:39:17;;;;;;;2.28;0.60;;;10.60;99.90;;;;;;4919061;29;20099;-95
2022/11/15 11:42:15;;;;;;;0.80;0.50;;;10.70;99.90;;;;;;4886608;29;20060;-95
2022/11/15 11:44:52;;;;;;;0.95;0.30;;;10.70;99.90;;;;;;4851010;29;20055;-96
2022/11/15 11:47:26;;;;;;;2.78;0.55;;;10.70;99.90;;;;;;4914260;29;20122;-96
2022/11/15 11:50:00;;;;;;;1.70;0.60;;;10.70;99.90;;;;;;4930383;29;20493;-94
2022/11/15 11:52:38;;;;;;;1.65;0.90;;;10.70;99.90;;;;;;4917596;29;20040;-95
2022/11/15 11:55:23;;;;;;;1.58;0.60;;;10.70;99.90;;;;;;4927728;29;20520;-95
2022/11/15 11:57:57;;;;;;;0.73;0.40;;;10.70;99.90;;;;;;4934297;29;20028;-94
2022/11/15 12:00:28;;;;;;;0.80;0.60;;;10.80;99.90;;;;;;4935536;29;20024;-96
2022/11/15 12:03:07;;;;;;;0.30;0.30;;;10.80;99.90;;;;;;4933466;29;20119;-95
2022/11/15 12:05:50;;;;;;;0.73;0.50;;;10.80;99.90;;;;;;4931766;29;20040;-96
2022/11/15 12:08:19;;;;;;;5.18;0.70;;;10.80;99.90;;;;;;4933825;29;20032;-95
2022/11/15 12:10:51;;;;;;;0.90;0.50;;;10.80;99.90;;;;;;4934805;29;20131;-95
2022/11/15 12:13:24;;;;;;;2.05;0.50;;;10.90;99.90;;;;;;4916607;29;20044;-93
2022/11/15 12:16:20;;;;;;;2.45;0.40;;;10.90;99.90;;;;;;4907536;29;20024;-93
2022/11/15 12:18:52;;;;;;;0.30;0.30;;;10.90;99.90;;;;;;4924501;29;20028;-95
2022/11/15 12:21:40;;;;;;;0.57;0.43;;;10.90;99.90;;;;;;4924941;28;20032;-93
2022/11/15 12:24:21;;;;;;;2.15;0.60;;;10.90;99.90;;;;;;4934300;29;20040;-95
2022/11/15 12:26:52;;;;;;;;;;;11.00;99.90;;;;;;4933986;29;20135;-95
2022/11/15 12:29:39;;;;;;;0.55;0.40;;;10.90;99.90;;;;;;4914922;29;19970;-95
2022/11/15 12:32:27;;;;;;;0.80;0.50;;;11.00;99.90;;;;;;4918815;29;20016;-96
2022/11/15 12:34:54;;;;;;;1.75;0.60;;;11.00;99.90;;;;;;4900836;29;20051;-94
2022/11/15 12:37:38;;;;;;;1.63;0.63;;;11.00;99.90;;;;;;4914715;29;20032;-93
2022/11/15 12:40:07;;;;;;;1.00;0.40;;;11.00;99.90;;;;;;4932471;29;20044;-94
2022/11/15 12:42:56;;;;;;;1.35;0.40;;;11.00;99.90;;;;;;4932315;29;20020;-94
2022/11/15 12:45:24;;;;;;;1.27;0.68;;;11.10;99.90;;;;;;4933999;29;20040;-94
2022/11/15 12:47:50;;;;;;;0.75;0.50;;;11.10;99.90;;;;;;4932661;29;20043;-95
2022/11/15 12:50:36;;;;;;;0.30;0.30;;;11.10;99.90;;;;;;4912303;29;20036;-95
2022/11/15 12:53:27;;;;;;;0.60;0.50;;;11.00;99.90;;;;;;4936158;29;20055;-95
2022/11/15 12:56:08;;;;;;;2.40;0.65;;;11.00;99.90;;;;;;4914771;29;20040;-94
2022/11/15 12:58:50;;;;;;;1.73;0.68;;;11.10;99.90;;;;;;4939918;29;20095;-95
2022/11/15 13:01:37;;;;;;;1.45;0.50;;;11.10;99.90;;;;;;4936602;29;20044;-95
2022/11/15 13:04:18;;;;;;;0.30;0.20;;;11.00;99.90;;;;;;4938373;29;20116;-95
2022/11/15 13:06:45;;;;;;;1.40;0.40;;;11.10;99.90;;;;;;4939793;29;20017;-95
2022/11/15 13:09:32;;;;;;;1.77;0.30;;;11.00;99.90;;;;;;4940155;28;20036;-94
2022/11/15 13:12:01;;;;;;;0.30;0.30;;;11.00;99.90;;;;;;4938601;28;20056;-96
2022/11/15 13:14:43;;;;;;;0.20;0.20;;;11.10;99.90;;;;;;4936285;29;20031;-95
2022/11/15 13:17:46;;;;;;;;;;;;;;;;;;;;;
2022/11/15 13:20:15;;;;;;;0.80;0.30;;;11.10;99.90;;;;;;4930583;29;20123;-96
2022/11/15 13:22:50;;;;;;;0.65;0.40;;;11.10;99.90;;;;;;4933211;29;20047;-94